sensor_id;sensor_type;location;lat;lon;timestamp;P1;durP1;ratioP1;P2;durP2;ratioP2
42140;SDS011;27809;51.864;5.646;2023-05-20T00:00:26;10.65;;;1.73;;
42140;SDS011;27809;51.864;5.646;2023-05-20T00:02:52;5.95;;;1.05;;
42140;SDS011;27809;51.864;5.646;2023-05-20T00:05:17;5.78;;;1.55;;
42140;SDS011;27809;51.864;5.646;2023-05-20T00:07:43;9.77;;;1.42;;
42140;SDS011;27809;51.864;5.646;2023-05-20T00:10:08;5.20;;;0.85;;
42140;SDS011;27809;51.864;5.646;2023-05-20T00:12:35;6.55;;;1.40;;
42140;SDS011;27809;51.864;5.646;2023-05-20T00:15:02;7.38;;;0.98;;
42140;SDS011;27809;51.864;5.646;2023-05-20T00:17:27;12.73;;;2.80;;
42140;SDS011;27809;51.864;5.646;2023-05-20T00:19:53;8.60;;;1.20;;
42140;SDS011;27809;51.864;5.646;2023-05-20T00:22:19;6.07;;;1.70;;
42140;SDS011;27809;51.864;5.646;2023-05-20T00:24:44;5.45;;;1.40;;
42140;SDS011;27809;51.864;5.646;2023-05-20T00:27:10;4.75;;;1.15;;
42140;SDS011;27809;51.864;5.646;2023-05-20T00:29:35;5.68;;;1.33;;
42140;SDS011;27809;51.864;5.646;2023-05-20T00:32:01;3.63;;;1.40;;
42140;SDS011;27809;51.864;5.646;2023-05-20T00:34:26;5.57;;;1.80;;
42140;SDS011;27809;51.864;5.646;2023-05-20T00:36:52;5.07;;;1.30;;
42140;SDS011;27809;51.864;5.646;2023-05-20T00:39:18;2.85;;;1.30;;
42140;SDS011;27809;51.864;5.646;2023-05-20T00:41:43;5.75;;;1.63;;
42140;SDS011;27809;51.864;5.646;2023-05-20T00:44:09;5.47;;;1.70;;
42140;SDS011;27809;51.864;5.646;2023-05-20T00:46:34;19.45;;;1.95;;
42140;SDS011;27809;51.864;5.646;2023-05-20T00:49:00;12.60;;;2.63;;
42140;SDS011;27809;51.864;5.646;2023-05-20T00:51:26;3.30;;;1.15;;
42140;SDS011;27809;51.864;5.646;2023-05-20T00:53:52;9.05;;;1.63;;
42140;SDS011;27809;51.864;5.646;2023-05-20T00:56:19;12.15;;;1.73;;
42140;SDS011;27809;51.864;5.646;2023-05-20T00:58:46;9.02;;;1.70;;
42140;SDS011;27809;51.864;5.646;2023-05-20T01:01:11;10.43;;;1.10;;
42140;SDS011;27809;51.864;5.646;2023-05-20T01:03:37;4.53;;;1.20;;
42140;SDS011;27809;51.864;5.646;2023-05-20T01:06:04;9.50;;;1.75;;
42140;SDS011;27809;51.864;5.646;2023-05-20T01:08:30;5.03;;;1.75;;
42140;SDS011;27809;51.864;5.646;2023-05-20T01:11:02;3.60;;;1.08;;
42140;SDS011;27809;51.864;5.646;2023-05-20T01:13:44;7.40;;;1.92;;
42140;SDS011;27809;51.864;5.646;2023-05-20T01:16:13;6.57;;;2.45;;
42140;SDS011;27809;51.864;5.646;2023-05-20T01:18:42;4.47;;;0.90;;
42140;SDS011;27809;51.864;5.646;2023-05-20T01:21:10;3.75;;;1.35;;
42140;SDS011;27809;51.864;5.646;2023-05-20T01:23:38;9.32;;;1.88;;
42140;SDS011;27809;51.864;5.646;2023-05-20T01:26:04;4.65;;;0.95;;
42140;SDS011;27809;51.864;5.646;2023-05-20T01:28:31;9.75;;;1.92;;
42140;SDS011;27809;51.864;5.646;2023-05-20T01:30:57;2.50;;;1.17;;
42140;SDS011;27809;51.864;5.646;2023-05-20T01:33:25;7.10;;;1.70;;
42140;SDS011;27809;51.864;5.646;2023-05-20T01:35:53;7.22;;;1.90;;
42140;SDS011;27809;51.864;5.646;2023-05-20T01:38:20;10.48;;;2.05;;
42140;SDS011;27809;51.864;5.646;2023-05-20T01:40:47;4.22;;;1.27;;
42140;SDS011;27809;51.864;5.646;2023-05-20T01:43:13;14.13;;;1.90;;
42140;SDS011;27809;51.864;5.646;2023-05-20T01:45:41;7.20;;;1.20;;
42140;SDS011;27809;51.864;5.646;2023-05-20T01:48:08;8.25;;;1.65;;
42140;SDS011;27809;51.864;5.646;2023-05-20T01:50:35;9.93;;;2.35;;
42140;SDS011;27809;51.864;5.646;2023-05-20T01:53:01;2.85;;;1.27;;
42140;SDS011;27809;51.864;5.646;2023-05-20T01:55:27;6.75;;;2.17;;
42140;SDS011;27809;51.864;5.646;2023-05-20T01:57:52;4.68;;;1.02;;
42140;SDS011;27809;51.864;5.646;2023-05-20T02:00:18;13.00;;;3.67;;
42140;SDS011;27809;51.864;5.646;2023-05-20T02:02:43;4.43;;;1.52;;
42140;SDS011;27809;51.864;5.646;2023-05-20T02:05:09;7.07;;;2.20;;
42140;SDS011;27809;51.864;5.646;2023-05-20T02:07:34;2.90;;;1.42;;
42140;SDS011;27809;51.864;5.646;2023-05-20T02:10:00;4.47;;;1.83;;
42140;SDS011;27809;51.864;5.646;2023-05-20T02:12:25;4.90;;;2.17;;
42140;SDS011;27809;51.864;5.646;2023-05-20T02:14:51;5.70;;;1.73;;
42140;SDS011;27809;51.864;5.646;2023-05-20T02:17:16;5.43;;;1.83;;
42140;SDS011;27809;51.864;5.646;2023-05-20T02:19:42;5.00;;;1.83;;
42140;SDS011;27809;51.864;5.646;2023-05-20T02:22:09;7.20;;;2.20;;
42140;SDS011;27809;51.864;5.646;2023-05-20T02:24:35;6.47;;;2.58;;
42140;SDS011;27809;51.864;5.646;2023-05-20T02:27:01;7.65;;;2.22;;
42140;SDS011;27809;51.864;5.646;2023-05-20T02:29:28;8.27;;;2.38;;
42140;SDS011;27809;51.864;5.646;2023-05-20T02:31:54;6.25;;;2.47;;
42140;SDS011;27809;51.864;5.646;2023-05-20T02:34:19;6.43;;;2.30;;
42140;SDS011;27809;51.864;5.646;2023-05-20T02:36:45;4.35;;;1.35;;
42140;SDS011;27809;51.864;5.646;2023-05-20T02:39:11;4.05;;;1.65;;
42140;SDS011;27809;51.864;5.646;2023-05-20T02:41:37;3.85;;;1.67;;
42140;SDS011;27809;51.864;5.646;2023-05-20T02:44:02;4.80;;;1.08;;
42140;SDS011;27809;51.864;5.646;2023-05-20T02:46:28;3.13;;;1.17;;
42140;SDS011;27809;51.864;5.646;2023-05-20T02:48:53;5.40;;;1.58;;
42140;SDS011;27809;51.864;5.646;2023-05-20T02:51:19;9.95;;;2.30;;
42140;SDS011;27809;51.864;5.646;2023-05-20T02:53:45;11.73;;;2.50;;
42140;SDS011;27809;51.864;5.646;2023-05-20T02:56:11;3.65;;;1.45;;
42140;SDS011;27809;51.864;5.646;2023-05-20T02:58:37;4.38;;;1.23;;
42140;SDS011;27809;51.864;5.646;2023-05-20T03:01:03;9.20;;;2.75;;
42140;SDS011;27809;51.864;5.646;2023-05-20T03:03:28;5.38;;;2.15;;
42140;SDS011;27809;51.864;5.646;2023-05-20T03:05:54;4.22;;;1.33;;
42140;SDS011;27809;51.864;5.646;2023-05-20T03:08:20;7.20;;;1.67;;
42140;SDS011;27809;51.864;5.646;2023-05-20T03:10:47;7.80;;;2.22;;
42140;SDS011;27809;51.864;5.646;2023-05-20T03:13:13;5.78;;;1.63;;
42140;SDS011;27809;51.864;5.646;2023-05-20T03:15:42;6.43;;;1.48;;
42140;SDS011;27809;51.864;5.646;2023-05-20T03:18:10;8.85;;;1.77;;
42140;SDS011;27809;51.864;5.646;2023-05-20T03:20:37;7.72;;;2.28;;
42140;SDS011;27809;51.864;5.646;2023-05-20T03:23:04;4.60;;;1.80;;
42140;SDS011;27809;51.864;5.646;2023-05-20T03:25:29;10.05;;;2.60;;
42140;SDS011;27809;51.864;5.646;2023-05-20T03:27:55;5.25;;;1.30;;
42140;SDS011;27809;51.864;5.646;2023-05-20T03:30:23;6.00;;;1.13;;
42140;SDS011;27809;51.864;5.646;2023-05-20T03:32:48;13.02;;;2.55;;
42140;SDS011;27809;51.864;5.646;2023-05-20T03:35:14;4.45;;;1.90;;
42140;SDS011;27809;51.864;5.646;2023-05-20T03:37:40;4.60;;;2.38;;
42140;SDS011;27809;51.864;5.646;2023-05-20T03:40:06;2.10;;;0.93;;
42140;SDS011;27809;51.864;5.646;2023-05-20T03:42:34;6.55;;;1.80;;
42140;SDS011;27809;51.864;5.646;2023-05-20T03:45:03;3.50;;;1.67;;
42140;SDS011;27809;51.864;5.646;2023-05-20T03:47:30;6.85;;;2.22;;
42140;SDS011;27809;51.864;5.646;2023-05-20T03:49:56;7.53;;;2.25;;
42140;SDS011;27809;51.864;5.646;2023-05-20T03:52:21;6.32;;;1.00;;
42140;SDS011;27809;51.864;5.646;2023-05-20T03:54:47;7.03;;;1.90;;
42140;SDS011;27809;51.864;5.646;2023-05-20T03:57:12;4.65;;;2.20;;
42140;SDS011;27809;51.864;5.646;2023-05-20T03:59:38;4.60;;;1.30;;
42140;SDS011;27809;51.864;5.646;2023-05-20T04:02:04;3.78;;;1.73;;
42140;SDS011;27809;51.864;5.646;2023-05-20T04:04:30;7.72;;;1.42;;
42140;SDS011;27809;51.864;5.646;2023-05-20T04:06:56;4.40;;;1.92;;
42140;SDS011;27809;51.864;5.646;2023-05-20T04:09:24;4.80;;;1.95;;
42140;SDS011;27809;51.864;5.646;2023-05-20T04:11:50;5.05;;;1.50;;
42140;SDS011;27809;51.864;5.646;2023-05-20T04:14:15;6.85;;;1.20;;
42140;SDS011;27809;51.864;5.646;2023-05-20T04:16:41;5.93;;;1.30;;
42140;SDS011;27809;51.864;5.646;2023-05-20T04:19:07;2.90;;;1.10;;
42140;SDS011;27809;51.864;5.646;2023-05-20T04:21:32;2.70;;;1.63;;
42140;SDS011;27809;51.864;5.646;2023-05-20T04:23:58;5.95;;;2.17;;
42140;SDS011;27809;51.864;5.646;2023-05-20T04:26:24;4.55;;;1.50;;
42140;SDS011;27809;51.864;5.646;2023-05-20T04:28:49;3.92;;;1.70;;
42140;SDS011;27809;51.864;5.646;2023-05-20T04:31:15;4.15;;;1.60;;
42140;SDS011;27809;51.864;5.646;2023-05-20T04:33:40;5.47;;;1.15;;
42140;SDS011;27809;51.864;5.646;2023-05-20T04:36:08;12.00;;;2.05;;
42140;SDS011;27809;51.864;5.646;2023-05-20T04:38:36;2.50;;;1.13;;
42140;SDS011;27809;51.864;5.646;2023-05-20T04:41:02;6.45;;;1.45;;
42140;SDS011;27809;51.864;5.646;2023-05-20T04:43:28;6.72;;;1.70;;
42140;SDS011;27809;51.864;5.646;2023-05-20T04:45:57;16.90;;;3.80;;
42140;SDS011;27809;51.864;5.646;2023-05-20T04:48:23;4.38;;;1.33;;
42140;SDS011;27809;51.864;5.646;2023-05-20T04:50:49;3.40;;;2.22;;
42140;SDS011;27809;51.864;5.646;2023-05-20T04:53:16;3.95;;;1.30;;
42140;SDS011;27809;51.864;5.646;2023-05-20T04:55:42;2.38;;;1.35;;
42140;SDS011;27809;51.864;5.646;2023-05-20T04:58:08;1.98;;;0.98;;
42140;SDS011;27809;51.864;5.646;2023-05-20T05:00:42;5.15;;;1.52;;
42140;SDS011;27809;51.864;5.646;2023-05-20T05:03:09;7.20;;;2.05;;
42140;SDS011;27809;51.864;5.646;2023-05-20T05:05:36;7.35;;;2.28;;
42140;SDS011;27809;51.864;5.646;2023-05-20T05:08:03;4.20;;;1.75;;
42140;SDS011;27809;51.864;5.646;2023-05-20T05:10:29;3.17;;;1.83;;
42140;SDS011;27809;51.864;5.646;2023-05-20T05:12:55;3.72;;;1.70;;
42140;SDS011;27809;51.864;5.646;2023-05-20T05:15:21;4.13;;;1.80;;
42140;SDS011;27809;51.864;5.646;2023-05-20T05:17:47;4.70;;;1.55;;
42140;SDS011;27809;51.864;5.646;2023-05-20T05:20:13;5.53;;;1.60;;
42140;SDS011;27809;51.864;5.646;2023-05-20T05:22:38;6.53;;;1.42;;
42140;SDS011;27809;51.864;5.646;2023-05-20T05:25:05;3.90;;;1.17;;
42140;SDS011;27809;51.864;5.646;2023-05-20T05:27:32;4.07;;;1.80;;
42140;SDS011;27809;51.864;5.646;2023-05-20T05:29:59;4.05;;;1.30;;
42140;SDS011;27809;51.864;5.646;2023-05-20T05:32:24;4.07;;;2.05;;
42140;SDS011;27809;51.864;5.646;2023-05-20T05:34:50;6.80;;;3.22;;
42140;SDS011;27809;51.864;5.646;2023-05-20T05:37:15;4.30;;;1.20;;
42140;SDS011;27809;51.864;5.646;2023-05-20T05:39:41;3.92;;;1.33;;
42140;SDS011;27809;51.864;5.646;2023-05-20T05:42:06;6.28;;;0.90;;
42140;SDS011;27809;51.864;5.646;2023-05-20T05:44:32;1.67;;;1.08;;
42140;SDS011;27809;51.864;5.646;2023-05-20T05:46:57;4.53;;;1.35;;
42140;SDS011;27809;51.864;5.646;2023-05-20T05:49:23;9.48;;;2.28;;
42140;SDS011;27809;51.864;5.646;2023-05-20T05:51:49;6.65;;;1.85;;
42140;SDS011;27809;51.864;5.646;2023-05-20T05:54:15;4.57;;;1.15;;
42140;SDS011;27809;51.864;5.646;2023-05-20T05:56:40;3.22;;;1.15;;
42140;SDS011;27809;51.864;5.646;2023-05-20T05:59:06;7.53;;;1.75;;
42140;SDS011;27809;51.864;5.646;2023-05-20T06:01:31;7.65;;;1.60;;
42140;SDS011;27809;51.864;5.646;2023-05-20T06:03:57;4.53;;;1.92;;
42140;SDS011;27809;51.864;5.646;2023-05-20T06:06:23;3.10;;;1.08;;
42140;SDS011;27809;51.864;5.646;2023-05-20T06:08:48;4.53;;;1.63;;
42140;SDS011;27809;51.864;5.646;2023-05-20T06:11:14;1.60;;;0.80;;
42140;SDS011;27809;51.864;5.646;2023-05-20T06:13:40;5.75;;;1.42;;
42140;SDS011;27809;51.864;5.646;2023-05-20T06:16:05;5.50;;;1.70;;
42140;SDS011;27809;51.864;5.646;2023-05-20T06:18:31;3.10;;;1.15;;
42140;SDS011;27809;51.864;5.646;2023-05-20T06:20:57;6.68;;;1.55;;
42140;SDS011;27809;51.864;5.646;2023-05-20T06:23:22;3.80;;;0.90;;
42140;SDS011;27809;51.864;5.646;2023-05-20T06:25:48;1.67;;;1.08;;
42140;SDS011;27809;51.864;5.646;2023-05-20T06:28:14;4.03;;;1.35;;
42140;SDS011;27809;51.864;5.646;2023-05-20T06:30:40;7.72;;;1.45;;
42140;SDS011;27809;51.864;5.646;2023-05-20T06:33:06;4.80;;;0.70;;
42140;SDS011;27809;51.864;5.646;2023-05-20T06:35:31;4.60;;;0.90;;
42140;SDS011;27809;51.864;5.646;2023-05-20T06:38:00;5.28;;;1.15;;
42140;SDS011;27809;51.864;5.646;2023-05-20T06:40:27;4.75;;;1.10;;
42140;SDS011;27809;51.864;5.646;2023-05-20T06:42:52;2.90;;;0.82;;
42140;SDS011;27809;51.864;5.646;2023-05-20T06:45:18;1.98;;;1.00;;
42140;SDS011;27809;51.864;5.646;2023-05-20T06:47:43;6.60;;;1.35;;
42140;SDS011;27809;51.864;5.646;2023-05-20T06:50:09;2.10;;;0.98;;
42140;SDS011;27809;51.864;5.646;2023-05-20T06:52:35;8.18;;;1.45;;
42140;SDS011;27809;51.864;5.646;2023-05-20T06:55:02;4.75;;;1.40;;
42140;SDS011;27809;51.864;5.646;2023-05-20T06:57:28;2.47;;;0.90;;
42140;SDS011;27809;51.864;5.646;2023-05-20T06:59:53;6.10;;;0.82;;
42140;SDS011;27809;51.864;5.646;2023-05-20T07:02:19;2.47;;;0.98;;
42140;SDS011;27809;51.864;5.646;2023-05-20T07:04:45;3.78;;;1.30;;
42140;SDS011;27809;51.864;5.646;2023-05-20T07:07:11;2.13;;;0.95;;
42140;SDS011;27809;51.864;5.646;2023-05-20T07:09:36;2.25;;;0.50;;
42140;SDS011;27809;51.864;5.646;2023-05-20T07:12:02;4.80;;;1.38;;
42140;SDS011;27809;51.864;5.646;2023-05-20T07:14:28;1.30;;;0.30;;
42140;SDS011;27809;51.864;5.646;2023-05-20T07:16:53;1.98;;;0.70;;
42140;SDS011;27809;51.864;5.646;2023-05-20T07:19:19;2.08;;;0.45;;
42140;SDS011;27809;51.864;5.646;2023-05-20T07:21:44;1.38;;;0.73;;
42140;SDS011;27809;51.864;5.646;2023-05-20T07:24:10;1.10;;;0.57;;
42140;SDS011;27809;51.864;5.646;2023-05-20T07:26:35;2.00;;;0.88;;
42140;SDS011;27809;51.864;5.646;2023-05-20T07:29:04;0.90;;;0.30;;
42140;SDS011;27809;51.864;5.646;2023-05-20T07:31:29;0.98;;;0.52;;
42140;SDS011;27809;51.864;5.646;2023-05-20T07:33:55;2.40;;;0.50;;
42140;SDS011;27809;51.864;5.646;2023-05-20T07:36:21;2.60;;;0.50;;
42140;SDS011;27809;51.864;5.646;2023-05-20T07:38:46;5.55;;;1.30;;
42140;SDS011;27809;51.864;5.646;2023-05-20T07:41:12;2.55;;;0.95;;
42140;SDS011;27809;51.864;5.646;2023-05-20T07:43:37;7.53;;;1.25;;
42140;SDS011;27809;51.864;5.646;2023-05-20T07:46:03;2.55;;;1.08;;
42140;SDS011;27809;51.864;5.646;2023-05-20T07:48:29;4.15;;;0.50;;
42140;SDS011;27809;51.864;5.646;2023-05-20T07:50:54;5.38;;;0.63;;
42140;SDS011;27809;51.864;5.646;2023-05-20T07:53:24;2.40;;;0.65;;
42140;SDS011;27809;51.864;5.646;2023-05-20T07:55:50;3.47;;;1.67;;
42140;SDS011;27809;51.864;5.646;2023-05-20T07:58:15;6.13;;;0.90;;
42140;SDS011;27809;51.864;5.646;2023-05-20T08:00:41;1.55;;;0.70;;
42140;SDS011;27809;51.864;5.646;2023-05-20T08:03:07;9.65;;;0.80;;
42140;SDS011;27809;51.864;5.646;2023-05-20T08:05:35;3.58;;;0.57;;
42140;SDS011;27809;51.864;5.646;2023-05-20T08:08:01;3.50;;;1.05;;
42140;SDS011;27809;51.864;5.646;2023-05-20T08:10:27;3.95;;;0.52;;
42140;SDS011;27809;51.864;5.646;2023-05-20T08:12:52;5.00;;;1.05;;
42140;SDS011;27809;51.864;5.646;2023-05-20T08:15:18;1.00;;;0.68;;
42140;SDS011;27809;51.864;5.646;2023-05-20T08:17:43;4.57;;;1.52;;
42140;SDS011;27809;51.864;5.646;2023-05-20T08:20:10;2.83;;;1.00;;
42140;SDS011;27809;51.864;5.646;2023-05-20T08:22:36;2.90;;;0.77;;
42140;SDS011;27809;51.864;5.646;2023-05-20T08:25:02;1.73;;;0.93;;
42140;SDS011;27809;51.864;5.646;2023-05-20T08:27:28;5.40;;;0.55;;
42140;SDS011;27809;51.864;5.646;2023-05-20T08:29:54;3.80;;;1.02;;
42140;SDS011;27809;51.864;5.646;2023-05-20T08:32:20;3.25;;;0.55;;
42140;SDS011;27809;51.864;5.646;2023-05-20T08:34:45;2.97;;;0.90;;
42140;SDS011;27809;51.864;5.646;2023-05-20T08:37:13;1.05;;;0.55;;
42140;SDS011;27809;51.864;5.646;2023-05-20T08:39:38;4.43;;;1.02;;
42140;SDS011;27809;51.864;5.646;2023-05-20T08:42:04;1.88;;;0.50;;
42140;SDS011;27809;51.864;5.646;2023-05-20T08:44:31;3.83;;;0.60;;
42140;SDS011;27809;51.864;5.646;2023-05-20T08:46:58;1.10;;;0.63;;
42140;SDS011;27809;51.864;5.646;2023-05-20T08:49:25;1.63;;;0.80;;
42140;SDS011;27809;51.864;5.646;2023-05-20T08:51:50;3.70;;;0.73;;
42140;SDS011;27809;51.864;5.646;2023-05-20T08:54:16;1.90;;;0.57;;
42140;SDS011;27809;51.864;5.646;2023-05-20T08:56:43;3.42;;;0.73;;
42140;SDS011;27809;51.864;5.646;2023-05-20T08:59:08;2.30;;;0.65;;
42140;SDS011;27809;51.864;5.646;2023-05-20T09:01:40;4.47;;;0.68;;
42140;SDS011;27809;51.864;5.646;2023-05-20T09:04:09;2.75;;;0.40;;
42140;SDS011;27809;51.864;5.646;2023-05-20T09:06:41;1.83;;;1.05;;
42140;SDS011;27809;51.864;5.646;2023-05-20T09:09:11;2.65;;;0.65;;
42140;SDS011;27809;51.864;5.646;2023-05-20T09:11:38;1.13;;;0.65;;
42140;SDS011;27809;51.864;5.646;2023-05-20T09:14:06;2.40;;;0.45;;
42140;SDS011;27809;51.864;5.646;2023-05-20T09:16:32;2.15;;;0.65;;
42140;SDS011;27809;51.864;5.646;2023-05-20T09:18:58;3.17;;;0.85;;
42140;SDS011;27809;51.864;5.646;2023-05-20T09:21:27;0.90;;;0.45;;
42140;SDS011;27809;51.864;5.646;2023-05-20T09:23:53;3.67;;;0.90;;
42140;SDS011;27809;51.864;5.646;2023-05-20T09:26:21;7.68;;;0.80;;
42140;SDS011;27809;51.864;5.646;2023-05-20T09:28:48;1.50;;;0.55;;
42140;SDS011;27809;51.864;5.646;2023-05-20T09:31:15;3.85;;;0.98;;
42140;SDS011;27809;51.864;5.646;2023-05-20T09:33:41;4.28;;;1.48;;
42140;SDS011;27809;51.864;5.646;2023-05-20T09:36:07;1.73;;;0.90;;
42140;SDS011;27809;51.864;5.646;2023-05-20T09:38:33;6.88;;;0.60;;
42140;SDS011;27809;51.864;5.646;2023-05-20T09:41:06;4.88;;;1.00;;
42140;SDS011;27809;51.864;5.646;2023-05-20T09:43:35;2.58;;;0.40;;
42140;SDS011;27809;51.864;5.646;2023-05-20T09:46:03;1.02;;;0.80;;
42140;SDS011;27809;51.864;5.646;2023-05-20T09:48:29;5.70;;;0.70;;
42140;SDS011;27809;51.864;5.646;2023-05-20T09:50:56;3.00;;;0.50;;
42140;SDS011;27809;51.864;5.646;2023-05-20T09:53:22;1.65;;;0.50;;
42140;SDS011;27809;51.864;5.646;2023-05-20T09:55:52;8.85;;;0.68;;
42140;SDS011;27809;51.864;5.646;2023-05-20T09:58:19;1.38;;;0.40;;
42140;SDS011;27809;51.864;5.646;2023-05-20T10:00:45;2.10;;;0.40;;
42140;SDS011;27809;51.864;5.646;2023-05-20T10:03:10;0.95;;;0.47;;
42140;SDS011;27809;51.864;5.646;2023-05-20T10:05:39;0.95;;;0.20;;
42140;SDS011;27809;51.864;5.646;2023-05-20T10:10:48;2.67;;;0.20;;
42140;SDS011;27809;51.864;5.646;2023-05-20T10:13:49;1.20;;;0.40;;
42140;SDS011;27809;51.864;5.646;2023-05-20T10:19:32;1.27;;;0.28;;
42140;SDS011;27809;51.864;5.646;2023-05-20T10:22:05;2.30;;;0.40;;
42140;SDS011;27809;51.864;5.646;2023-05-20T10:24:36;1.00;;;0.40;;
42140;SDS011;27809;51.864;5.646;2023-05-20T10:27:06;2.47;;;0.30;;
42140;SDS011;27809;51.864;5.646;2023-05-20T10:29:51;0.88;;;0.20;;
42140;SDS011;27809;51.864;5.646;2023-05-20T10:35:00;1.02;;;0.50;;
42140;SDS011;27809;51.864;5.646;2023-05-20T10:37:30;0.68;;;0.40;;
42140;SDS011;27809;51.864;5.646;2023-05-20T10:40:10;0.50;;;0.15;;
42140;SDS011;27809;51.864;5.646;2023-05-20T10:42:42;1.35;;;0.32;;
42140;SDS011;27809;51.864;5.646;2023-05-20T10:45:08;1.65;;;0.22;;
42140;SDS011;27809;51.864;5.646;2023-05-20T10:47:34;2.17;;;0.32;;
42140;SDS011;27809;51.864;5.646;2023-05-20T10:50:00;2.15;;;0.30;;
42140;SDS011;27809;51.864;5.646;2023-05-20T10:52:31;1.10;;;0.40;;
42140;SDS011;27809;51.864;5.646;2023-05-20T10:54:58;1.13;;;0.40;;
42140;SDS011;27809;51.864;5.646;2023-05-20T10:57:25;2.08;;;0.32;;
42140;SDS011;27809;51.864;5.646;2023-05-20T10:59:51;4.75;;;0.63;;
42140;SDS011;27809;51.864;5.646;2023-05-20T11:02:18;1.25;;;0.38;;
42140;SDS011;27809;51.864;5.646;2023-05-20T11:04:44;1.23;;;0.20;;
42140;SDS011;27809;51.864;5.646;2023-05-20T11:07:11;1.67;;;0.30;;
42140;SDS011;27809;51.864;5.646;2023-05-20T11:09:38;0.90;;;0.22;;
42140;SDS011;27809;51.864;5.646;2023-05-20T11:12:03;3.00;;;0.50;;
42140;SDS011;27809;51.864;5.646;2023-05-20T11:14:29;0.73;;;0.25;;
42140;SDS011;27809;51.864;5.646;2023-05-20T11:16:56;3.72;;;0.20;;
42140;SDS011;27809;51.864;5.646;2023-05-20T11:19:22;0.50;;;0.20;;
42140;SDS011;27809;51.864;5.646;2023-05-20T11:21:48;1.05;;;0.40;;
42140;SDS011;27809;51.864;5.646;2023-05-20T11:24:16;6.32;;;0.50;;
42140;SDS011;27809;51.864;5.646;2023-05-20T11:26:49;0.63;;;0.38;;
42140;SDS011;27809;51.864;5.646;2023-05-20T11:29:15;1.98;;;0.38;;
42140;SDS011;27809;51.864;5.646;2023-05-20T11:31:41;1.58;;;0.65;;
42140;SDS011;27809;51.864;5.646;2023-05-20T11:34:07;0.93;;;0.30;;
42140;SDS011;27809;51.864;5.646;2023-05-20T11:36:32;2.00;;;0.50;;
42140;SDS011;27809;51.864;5.646;2023-05-20T11:38:58;2.65;;;0.40;;
42140;SDS011;27809;51.864;5.646;2023-05-20T11:41:25;0.90;;;0.40;;
42140;SDS011;27809;51.864;5.646;2023-05-20T11:43:55;2.38;;;0.50;;
42140;SDS011;27809;51.864;5.646;2023-05-20T11:46:24;0.80;;;0.40;;
42140;SDS011;27809;51.864;5.646;2023-05-20T11:48:52;23.40;;;1.20;;
42140;SDS011;27809;51.864;5.646;2023-05-20T11:51:21;0.73;;;0.25;;
42140;SDS011;27809;51.864;5.646;2023-05-20T11:53:47;3.65;;;0.60;;
42140;SDS011;27809;51.864;5.646;2023-05-20T11:56:13;3.42;;;0.50;;
42140;SDS011;27809;51.864;5.646;2023-05-20T11:58:38;2.55;;;0.52;;
42140;SDS011;27809;51.864;5.646;2023-05-20T12:01:04;2.17;;;0.20;;
42140;SDS011;27809;51.864;5.646;2023-05-20T12:03:30;2.83;;;0.40;;
42140;SDS011;27809;51.864;5.646;2023-05-20T12:05:56;1.75;;;0.30;;
42140;SDS011;27809;51.864;5.646;2023-05-20T12:08:25;1.15;;;0.40;;
42140;SDS011;27809;51.864;5.646;2023-05-20T12:10:51;1.08;;;0.40;;
42140;SDS011;27809;51.864;5.646;2023-05-20T12:13:16;2.22;;;0.30;;
42140;SDS011;27809;51.864;5.646;2023-05-20T12:15:43;4.57;;;0.30;;
42140;SDS011;27809;51.864;5.646;2023-05-20T12:18:08;2.25;;;0.28;;
42140;SDS011;27809;51.864;5.646;2023-05-20T12:20:35;2.80;;;0.38;;
42140;SDS011;27809;51.864;5.646;2023-05-20T12:23:01;1.45;;;0.28;;
42140;SDS011;27809;51.864;5.646;2023-05-20T12:25:27;2.22;;;0.20;;
42140;SDS011;27809;51.864;5.646;2023-05-20T12:27:53;0.77;;;0.30;;
42140;SDS011;27809;51.864;5.646;2023-05-20T12:30:20;1.25;;;0.35;;
42140;SDS011;27809;51.864;5.646;2023-05-20T12:32:47;1.33;;;0.40;;
42140;SDS011;27809;51.864;5.646;2023-05-20T12:35:14;1.13;;;0.30;;
42140;SDS011;27809;51.864;5.646;2023-05-20T12:37:41;2.35;;;0.20;;
42140;SDS011;27809;51.864;5.646;2023-05-20T12:40:07;2.85;;;0.30;;
42140;SDS011;27809;51.864;5.646;2023-05-20T12:42:34;1.90;;;0.40;;
42140;SDS011;27809;51.864;5.646;2023-05-20T12:45:00;0.68;;;0.28;;
42140;SDS011;27809;51.864;5.646;2023-05-20T12:47:26;1.83;;;0.40;;
42140;SDS011;27809;51.864;5.646;2023-05-20T12:49:51;2.42;;;0.55;;
42140;SDS011;27809;51.864;5.646;2023-05-20T12:52:17;2.08;;;0.50;;
42140;SDS011;27809;51.864;5.646;2023-05-20T12:54:42;9.50;;;0.65;;
42140;SDS011;27809;51.864;5.646;2023-05-20T12:57:08;1.55;;;0.20;;
42140;SDS011;27809;51.864;5.646;2023-05-20T12:59:33;1.55;;;0.30;;
42140;SDS011;27809;51.864;5.646;2023-05-20T13:01:59;1.35;;;0.60;;
42140;SDS011;27809;51.864;5.646;2023-05-20T13:04:25;2.55;;;0.25;;
42140;SDS011;27809;51.864;5.646;2023-05-20T13:06:50;2.42;;;0.82;;
42140;SDS011;27809;51.864;5.646;2023-05-20T13:09:16;0.80;;;0.30;;
42140;SDS011;27809;51.864;5.646;2023-05-20T13:11:41;0.50;;;0.20;;
42140;SDS011;27809;51.864;5.646;2023-05-20T13:14:07;1.23;;;0.40;;
42140;SDS011;27809;51.864;5.646;2023-05-20T13:16:32;2.67;;;0.30;;
42140;SDS011;27809;51.864;5.646;2023-05-20T13:18:58;1.25;;;0.70;;
42140;SDS011;27809;51.864;5.646;2023-05-20T13:21:23;1.13;;;0.20;;
42140;SDS011;27809;51.864;5.646;2023-05-20T13:23:49;1.10;;;0.20;;
42140;SDS011;27809;51.864;5.646;2023-05-20T13:26:14;1.48;;;0.20;;
42140;SDS011;27809;51.864;5.646;2023-05-20T13:28:40;2.35;;;0.30;;
42140;SDS011;27809;51.864;5.646;2023-05-20T13:31:06;1.02;;;0.20;;
42140;SDS011;27809;51.864;5.646;2023-05-20T13:33:31;4.65;;;0.30;;
42140;SDS011;27809;51.864;5.646;2023-05-20T13:35:57;1.13;;;0.30;;
42140;SDS011;27809;51.864;5.646;2023-05-20T13:38:22;2.42;;;0.35;;
42140;SDS011;27809;51.864;5.646;2023-05-20T13:40:48;2.03;;;0.20;;
42140;SDS011;27809;51.864;5.646;2023-05-20T13:43:14;2.40;;;0.60;;
42140;SDS011;27809;51.864;5.646;2023-05-20T13:45:40;2.85;;;0.35;;
42140;SDS011;27809;51.864;5.646;2023-05-20T13:48:06;1.23;;;0.50;;
42140;SDS011;27809;51.864;5.646;2023-05-20T13:50:32;3.50;;;0.55;;
42140;SDS011;27809;51.864;5.646;2023-05-20T13:52:57;7.43;;;1.05;;
42140;SDS011;27809;51.864;5.646;2023-05-20T13:55:23;0.70;;;0.20;;
42140;SDS011;27809;51.864;5.646;2023-05-20T13:57:48;6.75;;;0.98;;
42140;SDS011;27809;51.864;5.646;2023-05-20T14:00:17;0.70;;;0.20;;
42140;SDS011;27809;51.864;5.646;2023-05-20T14:02:42;3.25;;;0.57;;
42140;SDS011;27809;51.864;5.646;2023-05-20T14:05:08;1.83;;;0.30;;
42140;SDS011;27809;51.864;5.646;2023-05-20T14:07:33;1.08;;;0.20;;
42140;SDS011;27809;51.864;5.646;2023-05-20T14:09:59;0.75;;;0.30;;
42140;SDS011;27809;51.864;5.646;2023-05-20T14:12:25;1.17;;;0.30;;
42140;SDS011;27809;51.864;5.646;2023-05-20T14:14:50;1.33;;;0.20;;
42140;SDS011;27809;51.864;5.646;2023-05-20T14:17:16;4.57;;;0.47;;
42140;SDS011;27809;51.864;5.646;2023-05-20T14:19:42;0.75;;;0.30;;
42140;SDS011;27809;51.864;5.646;2023-05-20T14:22:08;1.00;;;0.30;;
42140;SDS011;27809;51.864;5.646;2023-05-20T14:24:34;0.60;;;0.28;;
42140;SDS011;27809;51.864;5.646;2023-05-20T14:26:59;6.80;;;0.30;;
42140;SDS011;27809;51.864;5.646;2023-05-20T14:29:25;1.75;;;0.50;;
42140;SDS011;27809;51.864;5.646;2023-05-20T14:31:50;5.65;;;0.30;;
42140;SDS011;27809;51.864;5.646;2023-05-20T14:34:16;0.70;;;0.40;;
42140;SDS011;27809;51.864;5.646;2023-05-20T14:36:41;0.90;;;0.30;;
42140;SDS011;27809;51.864;5.646;2023-05-20T14:39:08;1.48;;;0.40;;
42140;SDS011;27809;51.864;5.646;2023-05-20T14:41:33;1.95;;;0.40;;
42140;SDS011;27809;51.864;5.646;2023-05-20T14:43:59;0.98;;;0.60;;
42140;SDS011;27809;51.864;5.646;2023-05-20T14:46:24;2.05;;;0.20;;
42140;SDS011;27809;51.864;5.646;2023-05-20T14:48:50;3.40;;;0.30;;
42140;SDS011;27809;51.864;5.646;2023-05-20T14:51:16;4.13;;;0.50;;